Arch Cape, OR (97102)

9:15 AM PST on February 14, 2016 (GMT -0800)
APRSWXNET | | Change Station
CLOSE
Current Station
Personal Weather Station
Location: Cannon Beach, OR
Elevation: 22 ft
Nearby Weather Stations

Elev 22 ft 45.89 °N, 123.96 °W | Updated 33 minutes ago

Rain
Rain
52 °F
Feels Like 52 °F
N
11
Wind Variable Wind from SSW
Gusts 0.0 mph

Today
High -- | Low -- °F
--% Chance of Precip.
Yesterday
High -- | Low -- °F
Precip. -- in
Pressure 30.19 in
Visibility 3.0 miles
Clouds Overcast 400 ft
Dew Point 51 °F
Humidity 98%
Rainfall in
Snow Depth Not available.
7:20 AM 5:40 PM
Waxing Crescent, 43% visible
SPECI KAST 141711Z AUTO 23011KT 3SM -RA BR OVC004 12/11 A3019 RMK AO2 P0001 T01170111
Pressure 30.19 in
Visibility 3.0 miles
Clouds Overcast 400 ft
Dew Point 51 °F
Humidity 98%
Rainfall in
Snow Depth Not available.
7:20 AM 5:40 PM
Waxing Crescent, 43% visible
SPECI KAST 141711Z AUTO 23011KT 3SM -RA BR OVC004 12/11 A3019 RMK AO2 P0001 T01170111

10-Day Weather Forecast

Almanac

Astronomy

Feb. 14, 2016 Rise Set
Actual Time
Civil Twilight
Nautical Twilight
Astronomical Twilight
Moon
Length of Visible Light
Length of Day
Tomorrow will be .
, % of the Moon is Illuminated

Today's Extremes

State Highs State Lows

Community

WunderPhotos

Upload Photos

1,892,853 photos uploaded!

WunderBlog® & News

Nearby

Air Quality

  Air Quality AQ Index Pollutant
Not available.

Snow Depth

Station Depth Elevation

Earthquake Activity

City Distance Mag. Time & Date
Minimum magnitude displayed is 2.5.

Coastal Water Temperatures

Place Temperature

Stations

Nearby Weather Stations

Station Location Temp. Windchill Dew Point Humidity Wind Precip. Elev Updated Type
                   

Watches & Warnings

There are currently no watches in effect.